sensor_id;sensor_type;location;lat;lon;timestamp;pressure;altitude;pressure_sealevel;temperature;humidity
64340;BME280;63709;53.258;-8.814;2022-12-11T00:01:26;101248.56;;;-0.03;100.00
64340;BME280;63709;53.258;-8.814;2022-12-11T00:03:54;101247.72;;;-0.05;100.00
64340;BME280;63709;53.258;-8.814;2022-12-11T00:06:21;101245.88;;;-0.02;100.00
64340;BME280;63709;53.258;-8.814;2022-12-11T00:08:50;101253.03;;;-0.08;100.00
64340;BME280;63709;53.258;-8.814;2022-12-11T00:11:18;101239.25;;;-0.16;100.00
64340;BME280;63709;53.258;-8.814;2022-12-11T00:13:43;101256.75;;;-0.17;100.00
64340;BME280;63709;53.258;-8.814;2022-12-11T00:16:09;101255.03;;;-0.18;100.00
64340;BME280;63709;53.258;-8.814;2022-12-11T00:18:41;101259.47;;;-0.21;100.00
64340;BME280;63709;53.258;-8.814;2022-12-11T00:21:12;101263.78;;;-0.19;100.00
64340;BME280;63709;53.258;-8.814;2022-12-11T00:23:38;101238.88;;;-0.38;100.00
64340;BME280;63709;53.258;-8.814;2022-12-11T00:26:07;101266.31;;;-0.16;100.00
64340;BME280;63709;53.258;-8.814;2022-12-11T00:28:34;101240.59;;;-0.36;100.00
64340;BME280;63709;53.258;-8.814;2022-12-11T00:31:03;101264.78;;;-0.25;100.00
64340;BME280;63709;53.258;-8.814;2022-12-11T00:33:30;101269.91;;;-0.18;100.00
64340;BME280;63709;53.258;-8.814;2022-12-11T00:35:56;101264.72;;;-0.21;100.00
64340;BME280;63709;53.258;-8.814;2022-12-11T00:38:25;101247.53;;;-0.35;100.00
64340;BME280;63709;53.258;-8.814;2022-12-11T00:40:51;101262.16;;;-0.25;100.00
64340;BME280;63709;53.258;-8.814;2022-12-11T00:43:17;101270.91;;;-0.24;100.00
64340;BME280;63709;53.258;-8.814;2022-12-11T00:45:44;101270.25;;;-0.34;100.00
64340;BME280;63709;53.258;-8.814;2022-12-11T00:48:11;101276.50;;;-0.39;100.00
64340;BME280;63709;53.258;-8.814;2022-12-11T00:50:38;101265.25;;;-0.44;100.00
64340;BME280;63709;53.258;-8.814;2022-12-11T00:53:07;101263.56;;;-0.49;100.00
64340;BME280;63709;53.258;-8.814;2022-12-11T00:55:37;101258.44;;;-0.53;100.00
64340;BME280;63709;53.258;-8.814;2022-12-11T00:58:03;101268.03;;;-0.52;100.00
64340;BME280;63709;53.258;-8.814;2022-12-11T01:00:29;101264.59;;;-0.54;100.00
64340;BME280;63709;53.258;-8.814;2022-12-11T01:02:56;101260.25;;;-0.55;100.00
64340;BME280;63709;53.258;-8.814;2022-12-11T01:05:22;101258.44;;;-0.53;100.00
64340;BME280;63709;53.258;-8.814;2022-12-11T01:07:47;101264.47;;;-0.48;100.00
64340;BME280;63709;53.258;-8.814;2022-12-11T01:10:13;101263.63;;;-0.50;100.00
64340;BME280;63709;53.258;-8.814;2022-12-11T01:12:53;101261.28;;;-0.62;100.00
64340;BME280;63709;53.258;-8.814;2022-12-11T01:15:25;101263.91;;;-0.62;100.00
64340;BME280;63709;53.258;-8.814;2022-12-11T01:17:53;101260.50;;;-0.67;100.00
64340;BME280;63709;53.258;-8.814;2022-12-11T01:20:22;101272.63;;;-0.63;100.00
64340;BME280;63709;53.258;-8.814;2022-12-11T01:22:51;101271.75;;;-0.62;100.00
64340;BME280;63709;53.258;-8.814;2022-12-11T01:25:19;101267.41;;;-0.63;100.00
64340;BME280;63709;53.258;-8.814;2022-12-11T01:27:45;101262.16;;;-0.63;100.00
64340;BME280;63709;53.258;-8.814;2022-12-11T01:30:12;101251.88;;;-0.73;100.00
64340;BME280;63709;53.258;-8.814;2022-12-11T01:32:37;101255.19;;;-0.64;100.00
64340;BME280;63709;53.258;-8.814;2022-12-11T01:35:05;101256.19;;;-0.70;100.00
64340;BME280;63709;53.258;-8.814;2022-12-11T01:37:31;101263.06;;;-0.64;100.00
64340;BME280;63709;53.258;-8.814;2022-12-11T01:39:57;101243.25;;;-0.78;100.00
64340;BME280;63709;53.258;-8.814;2022-12-11T01:42:23;101262.19;;;-0.65;100.00
64340;BME280;63709;53.258;-8.814;2022-12-11T01:47:16;101267.50;;;-0.68;100.00
64340;BME280;63709;53.258;-8.814;2022-12-11T01:49:44;101244.19;;;-0.80;100.00
64340;BME280;63709;53.258;-8.814;2022-12-11T01:52:17;101269.19;;;-0.65;100.00
64340;BME280;63709;53.258;-8.814;2022-12-11T01:54:43;101262.16;;;-0.63;100.00
64340;BME280;63709;53.258;-8.814;2022-12-11T01:57:10;101257.06;;;-0.71;100.00
64340;BME280;63709;53.258;-8.814;2022-12-11T01:59:38;101266.69;;;-0.70;100.00
64340;BME280;63709;53.258;-8.814;2022-12-11T02:05:05;101265.25;;;-0.85;100.00
64340;BME280;63709;53.258;-8.814;2022-12-11T02:07:38;101276.66;;;-0.87;100.00
64340;BME280;63709;53.258;-8.814;2022-12-11T02:10:07;101269.66;;;-0.87;100.00
64340;BME280;63709;53.258;-8.814;2022-12-11T02:15:12;101276.59;;;-0.84;100.00
64340;BME280;63709;53.258;-8.814;2022-12-11T02:20:26;101280.94;;;-0.83;100.00
64340;BME280;63709;53.258;-8.814;2022-12-11T02:23:24;101288.09;;;-0.93;100.00
64340;BME280;63709;53.258;-8.814;2022-12-11T02:28:46;101291.81;;;-1.03;100.00
64340;BME280;63709;53.258;-8.814;2022-12-11T02:31:22;101276.47;;;-1.23;100.00
64340;BME280;63709;53.258;-8.814;2022-12-11T02:34:11;101273.84;;;-1.23;100.00
64340;BME280;63709;53.258;-8.814;2022-12-11T02:36:41;101290.16;;;-1.09;100.00
64340;BME280;63709;53.258;-8.814;2022-12-11T02:39:11;101295.59;;;-1.18;100.00
64340;BME280;63709;53.258;-8.814;2022-12-11T02:41:42;101268.91;;;-1.38;100.00
64340;BME280;63709;53.258;-8.814;2022-12-11T02:44:13;101283.66;;;-1.33;100.00
64340;BME280;63709;53.258;-8.814;2022-12-11T02:46:42;101299.16;;;-1.22;100.00
64340;BME280;63709;53.258;-8.814;2022-12-11T02:49:10;101299.97;;;-1.18;100.00
64340;BME280;63709;53.258;-8.814;2022-12-11T02:51:39;101286.97;;;-1.25;100.00
64340;BME280;63709;53.258;-8.814;2022-12-11T02:54:10;101294.72;;;-1.18;100.00
64340;BME280;63709;53.258;-8.814;2022-12-11T02:56:44;101291.22;;;-1.19;100.00
64340;BME280;63709;53.258;-8.814;2022-12-11T02:59:21;101291.22;;;-1.19;100.00
64340;BME280;63709;53.258;-8.814;2022-12-11T03:01:49;101287.88;;;-1.26;100.00
64340;BME280;63709;53.258;-8.814;2022-12-11T03:04:15;101305.22;;;-1.20;100.00
64340;BME280;63709;53.258;-8.814;2022-12-11T03:06:45;101301.78;;;-1.24;100.00
64340;BME280;63709;53.258;-8.814;2022-12-11T03:09:13;101294.00;;;-1.27;100.00
64340;BME280;63709;53.258;-8.814;2022-12-11T03:11:40;101275.84;;;-1.37;100.00
64340;BME280;63709;53.258;-8.814;2022-12-11T03:14:06;101287.94;;;-1.29;100.00
64340;BME280;63709;53.258;-8.814;2022-12-11T03:16:40;101280.09;;;-1.30;100.00
64340;BME280;63709;53.258;-8.814;2022-12-11T03:22:29;101285.31;;;-1.29;100.00
64340;BME280;63709;53.258;-8.814;2022-12-11T03:25:02;101275.00;;;-1.36;100.00
64340;BME280;63709;53.258;-8.814;2022-12-11T03:30:40;101278.41;;;-1.33;100.00
64340;BME280;63709;53.258;-8.814;2022-12-11T03:33:14;101281.84;;;-1.31;100.00
64340;BME280;63709;53.258;-8.814;2022-12-11T03:35:55;101284.47;;;-1.29;100.00
64340;BME280;63709;53.258;-8.814;2022-12-11T03:38:29;101295.94;;;-1.36;100.00
64340;BME280;63709;53.258;-8.814;2022-12-11T03:41:00;101289.25;;;-1.54;100.00
64340;BME280;63709;53.258;-8.814;2022-12-11T03:43:28;101296.06;;;-1.44;100.00
64340;BME280;63709;53.258;-8.814;2022-12-11T03:45:57;101284.75;;;-1.46;100.00
64340;BME280;63709;53.258;-8.814;2022-12-11T03:48:27;101299.59;;;-1.47;100.00
64340;BME280;63709;53.258;-8.814;2022-12-11T03:50:56;101278.75;;;-1.51;100.00
64340;BME280;63709;53.258;-8.814;2022-12-11T03:53:24;101298.59;;;-1.39;100.00
64340;BME280;63709;53.258;-8.814;2022-12-11T03:55:51;101302.94;;;-1.37;100.00
64340;BME280;63709;53.258;-8.814;2022-12-11T03:58:19;101303.06;;;-1.44;100.00
64340;BME280;63709;53.258;-8.814;2022-12-11T04:00:45;101302.16;;;-1.43;100.00
64340;BME280;63709;53.258;-8.814;2022-12-11T04:03:12;101289.16;;;-1.48;100.00
64340;BME280;63709;53.258;-8.814;2022-12-11T04:05:42;101293.56;;;-1.50;100.00
64340;BME280;63709;53.258;-8.814;2022-12-11T04:08:08;101290.09;;;-1.52;100.00
64340;BME280;63709;53.258;-8.814;2022-12-11T04:10:34;101289.34;;;-1.59;100.00
64340;BME280;63709;53.258;-8.814;2022-12-11T04:13:00;101278.06;;;-1.62;100.00
64340;BME280;63709;53.258;-8.814;2022-12-11T04:15:26;101285.78;;;-1.56;100.00
64340;BME280;63709;53.258;-8.814;2022-12-11T04:17:51;101287.47;;;-1.51;100.00
64340;BME280;63709;53.258;-8.814;2022-12-11T04:20:35;101297.06;;;-1.51;100.00
64340;BME280;63709;53.258;-8.814;2022-12-11T04:23:21;101291.66;;;-1.42;100.00
64340;BME280;63709;53.258;-8.814;2022-12-11T04:26:08;101284.75;;;-1.46;100.00
64340;BME280;63709;53.258;-8.814;2022-12-11T04:28:35;101280.50;;;-1.52;100.00
64340;BME280;63709;53.258;-8.814;2022-12-11T04:31:02;101284.16;;;-1.63;100.00
64340;BME280;63709;53.258;-8.814;2022-12-11T04:33:28;101274.59;;;-1.64;100.00
64340;BME280;63709;53.258;-8.814;2022-12-11T04:35:56;101281.59;;;-1.65;100.00
64340;BME280;63709;53.258;-8.814;2022-12-11T04:38:22;101270.44;;;-1.76;100.00
64340;BME280;63709;53.258;-8.814;2022-12-11T04:40:48;101286.09;;;-1.75;100.00
64340;BME280;63709;53.258;-8.814;2022-12-11T04:43:21;101273.16;;;-1.81;100.00
64340;BME280;63709;53.258;-8.814;2022-12-11T04:45:48;101273.88;;;-1.73;100.00
64340;BME280;63709;53.258;-8.814;2022-12-11T04:48:14;101273.78;;;-1.66;100.00
64340;BME280;63709;53.258;-8.814;2022-12-11T04:50:39;101269.38;;;-1.63;100.00
64340;BME280;63709;53.258;-8.814;2022-12-11T04:53:06;101267.66;;;-1.65;100.00
64340;BME280;63709;53.258;-8.814;2022-12-11T04:55:33;101271.97;;;-1.63;100.00
64340;BME280;63709;53.258;-8.814;2022-12-11T04:57:59;101278.03;;;-1.59;100.00
64340;BME280;63709;53.258;-8.814;2022-12-11T05:00:25;101286.88;;;-1.66;100.00
64340;BME280;63709;53.258;-8.814;2022-12-11T05:02:51;101285.03;;;-1.61;100.00
64340;BME280;63709;53.258;-8.814;2022-12-11T05:05:17;101275.41;;;-1.61;100.00
64340;BME280;63709;53.258;-8.814;2022-12-11T05:07:43;101283.31;;;-1.62;100.00
64340;BME280;63709;53.258;-8.814;2022-12-11T05:10:09;101253.09;;;-1.80;100.00
64340;BME280;63709;53.258;-8.814;2022-12-11T05:12:35;101274.75;;;-1.72;100.00
64340;BME280;63709;53.258;-8.814;2022-12-11T05:15:01;101261.75;;;-1.78;100.00
64340;BME280;63709;53.258;-8.814;2022-12-11T05:17:27;101289.50;;;-1.68;100.00
64340;BME280;63709;53.258;-8.814;2022-12-11T05:19:52;101288.81;;;-1.78;100.00
64340;BME280;63709;53.258;-8.814;2022-12-11T05:22:18;101289.66;;;-1.77;100.00
64340;BME280;63709;53.258;-8.814;2022-12-11T05:24:44;101288.81;;;-1.79;100.00
64340;BME280;63709;53.258;-8.814;2022-12-11T05:27:10;101295.75;;;-1.77;100.00
64340;BME280;63709;53.258;-8.814;2022-12-11T05:29:36;101281.78;;;-1.76;100.00
64340;BME280;63709;53.258;-8.814;2022-12-11T05:32:02;101284.34;;;-1.73;100.00
64340;BME280;63709;53.258;-8.814;2022-12-11T05:34:29;101281.78;;;-1.76;100.00
64340;BME280;63709;53.258;-8.814;2022-12-11T05:36:56;101268.78;;;-1.80;100.00
64340;BME280;63709;53.258;-8.814;2022-12-11T05:39:25;101283.47;;;-1.73;100.00
64340;BME280;63709;53.258;-8.814;2022-12-11T05:41:51;101281.75;;;-1.74;100.00
64340;BME280;63709;53.258;-8.814;2022-12-11T05:44:16;101280.19;;;-1.86;100.00
64340;BME280;63709;53.258;-8.814;2022-12-11T05:46:45;101299.34;;;-1.84;100.00
64340;BME280;63709;53.258;-8.814;2022-12-11T05:49:11;101294.16;;;-1.85;100.00
64340;BME280;63709;53.258;-8.814;2022-12-11T05:51:38;101295.81;;;-1.80;100.00
64340;BME280;63709;53.258;-8.814;2022-12-11T05:54:04;101297.63;;;-1.86;100.00
64340;BME280;63709;53.258;-8.814;2022-12-11T05:56:32;101289.09;;;-1.96;100.00
64340;BME280;63709;53.258;-8.814;2022-12-11T05:58:59;101290.66;;;-1.86;100.00
64340;BME280;63709;53.258;-8.814;2022-12-11T06:01:34;101293.31;;;-1.87;100.00
64340;BME280;63709;53.258;-8.814;2022-12-11T06:04:03;101274.16;;;-1.89;100.00
64340;BME280;63709;53.258;-8.814;2022-12-11T06:06:31;101282.81;;;-1.86;100.00
64340;BME280;63709;53.258;-8.814;2022-12-11T06:08:57;101281.94;;;-1.85;100.00
64340;BME280;63709;53.258;-8.814;2022-12-11T06:11:24;101285.50;;;-1.89;100.00
64340;BME280;63709;53.258;-8.814;2022-12-11T06:13:51;101278.56;;;-1.93;100.00
64340;BME280;63709;53.258;-8.814;2022-12-11T06:16:17;101273.41;;;-1.96;100.00
64340;BME280;63709;53.258;-8.814;2022-12-11T06:18:44;101266.53;;;-2.03;100.00
64340;BME280;63709;53.258;-8.814;2022-12-11T06:21:17;101280.41;;;-1.98;100.00
64340;BME280;63709;53.258;-8.814;2022-12-11T06:23:46;101285.59;;;-1.97;100.00
64340;BME280;63709;53.258;-8.814;2022-12-11T06:26:12;101264.75;;;-2.01;100.00
64340;BME280;63709;53.258;-8.814;2022-12-11T06:28:38;101277.66;;;-1.89;100.00
64340;BME280;63709;53.258;-8.814;2022-12-11T06:31:05;101275.03;;;-1.89;100.00
64340;BME280;63709;53.258;-8.814;2022-12-11T06:33:32;101281.94;;;-1.86;100.00
64340;BME280;63709;53.258;-8.814;2022-12-11T06:36:06;101286.41;;;-1.93;100.00
64340;BME280;63709;53.258;-8.814;2022-12-11T06:38:33;101267.41;;;-2.03;100.00
64340;BME280;63709;53.258;-8.814;2022-12-11T06:41:02;101284.91;;;-2.08;100.00
64340;BME280;63709;53.258;-8.814;2022-12-11T06:43:34;101279.56;;;-2.00;100.00
64340;BME280;63709;53.258;-8.814;2022-12-11T06:46:09;101292.56;;;-1.96;100.00
64340;BME280;63709;53.258;-8.814;2022-12-11T06:48:35;101273.53;;;-2.04;100.00
64340;BME280;63709;53.258;-8.814;2022-12-11T06:51:06;101293.44;;;-1.95;100.00
64340;BME280;63709;53.258;-8.814;2022-12-11T06:53:32;101288.25;;;-1.98;100.00
64340;BME280;63709;53.258;-8.814;2022-12-11T06:56:09;101277.00;;;-2.03;100.00
64340;BME280;63709;53.258;-8.814;2022-12-11T06:58:36;101289.19;;;-2.02;100.00
64340;BME280;63709;53.258;-8.814;2022-12-11T07:01:11;101291.06;;;-2.10;100.00
64340;BME280;63709;53.258;-8.814;2022-12-11T07:03:37;101291.03;;;-2.09;100.00
64340;BME280;63709;53.258;-8.814;2022-12-11T07:06:03;101298.06;;;-2.12;100.00
64340;BME280;63709;53.258;-8.814;2022-12-11T07:08:29;101304.22;;;-2.16;100.00
64340;BME280;63709;53.258;-8.814;2022-12-11T07:11:08;101302.47;;;-2.16;100.00
64340;BME280;63709;53.258;-8.814;2022-12-11T07:13:35;101302.53;;;-2.21;100.00
64340;BME280;63709;53.258;-8.814;2022-12-11T07:16:03;101303.53;;;-2.31;100.00
64340;BME280;63709;53.258;-8.814;2022-12-11T07:18:34;101301.91;;;-2.38;100.00
64340;BME280;63709;53.258;-8.814;2022-12-11T07:20:59;101312.19;;;-2.26;100.00
64340;BME280;63709;53.258;-8.814;2022-12-11T07:23:26;101312.13;;;-2.21;100.00
64340;BME280;63709;53.258;-8.814;2022-12-11T07:25:53;101312.22;;;-2.27;100.00
64340;BME280;63709;53.258;-8.814;2022-12-11T07:28:19;101295.75;;;-2.34;100.00
64340;BME280;63709;53.258;-8.814;2022-12-11T07:30:46;101301.88;;;-2.35;100.00
64340;BME280;63709;53.258;-8.814;2022-12-11T07:33:11;101318.47;;;-2.39;100.00
64340;BME280;63709;53.258;-8.814;2022-12-11T07:35:38;101296.81;;;-2.49;100.00
64340;BME280;63709;53.258;-8.814;2022-12-11T07:38:04;101282.94;;;-2.52;100.00
64340;BME280;63709;53.258;-8.814;2022-12-11T07:40:32;101305.41;;;-2.39;100.00
64340;BME280;63709;53.258;-8.814;2022-12-11T07:42:59;101321.97;;;-2.40;100.00
64340;BME280;63709;53.258;-8.814;2022-12-11T07:45:25;101308.03;;;-2.39;100.00
64340;BME280;63709;53.258;-8.814;2022-12-11T07:47:51;101313.19;;;-2.34;100.00
64340;BME280;63709;53.258;-8.814;2022-12-11T07:50:18;101317.44;;;-2.26;100.00
64340;BME280;63709;53.258;-8.814;2022-12-11T07:52:44;101301.88;;;-2.35;100.00
64340;BME280;63709;53.258;-8.814;2022-12-11T07:55:09;101320.03;;;-2.26;100.00
64340;BME280;63709;53.258;-8.814;2022-12-11T07:57:35;101325.28;;;-2.26;100.00
64340;BME280;63709;53.258;-8.814;2022-12-11T08:00:03;101298.53;;;-2.45;100.00
64340;BME280;63709;53.258;-8.814;2022-12-11T08:02:29;101320.97;;;-2.31;100.00
64340;BME280;63709;53.258;-8.814;2022-12-11T08:04:55;101317.47;;;-2.30;100.00
64340;BME280;63709;53.258;-8.814;2022-12-11T08:07:21;101324.50;;;-2.34;100.00
64340;BME280;63709;53.258;-8.814;2022-12-11T08:09:48;101328.00;;;-2.33;100.00
64340;BME280;63709;53.258;-8.814;2022-12-11T08:12:15;101328.91;;;-2.36;100.00
64340;BME280;63709;53.258;-8.814;2022-12-11T08:14:40;101321.06;;;-2.36;100.00
64340;BME280;63709;53.258;-8.814;2022-12-11T08:17:05;101326.22;;;-2.30;100.00
64340;BME280;63709;53.258;-8.814;2022-12-11T08:19:31;101332.38;;;-2.35;100.00
64340;BME280;63709;53.258;-8.814;2022-12-11T08:21:57;101331.47;;;-2.34;100.00
64340;BME280;63709;53.258;-8.814;2022-12-11T08:24:24;101341.97;;;-2.36;100.00
64340;BME280;63709;53.258;-8.814;2022-12-11T08:26:49;101328.97;;;-2.40;100.00
64340;BME280;63709;53.258;-8.814;2022-12-11T08:29:15;101322.91;;;-2.44;100.00
64340;BME280;63709;53.258;-8.814;2022-12-11T08:31:41;101322.00;;;-2.43;100.00
64340;BME280;63709;53.258;-8.814;2022-12-11T08:34:08;101328.03;;;-2.38;100.00
64340;BME280;63709;53.258;-8.814;2022-12-11T08:36:40;101329.78;;;-2.38;100.00
64340;BME280;63709;53.258;-8.814;2022-12-11T08:39:06;101312.63;;;-2.58;100.00
64340;BME280;63709;53.258;-8.814;2022-12-11T08:41:31;101304.84;;;-2.62;100.00
64340;BME280;63709;53.258;-8.814;2022-12-11T08:43:59;101345.66;;;-2.54;100.00
64340;BME280;63709;53.258;-8.814;2022-12-11T08:46:30;101347.47;;;-2.56;100.00
64340;BME280;63709;53.258;-8.814;2022-12-11T08:48:56;101327.50;;;-2.63;100.00
64340;BME280;63709;53.258;-8.814;2022-12-11T08:51:26;101342.22;;;-2.57;100.00
64340;BME280;63709;53.258;-8.814;2022-12-11T08:54:01;101343.19;;;-2.63;100.00
64340;BME280;63709;53.258;-8.814;2022-12-11T08:56:27;101353.50;;;-2.54;100.00
64340;BME280;63709;53.258;-8.814;2022-12-11T08:58:54;101361.28;;;-2.49;100.00
64340;BME280;63709;53.258;-8.814;2022-12-11T09:01:23;101361.31;;;-2.52;100.00
64340;BME280;63709;53.258;-8.814;2022-12-11T09:03:50;101370.03;;;-2.50;100.00
64340;BME280;63709;53.258;-8.814;2022-12-11T09:06:18;101365.75;;;-2.57;100.00
64340;BME280;63709;53.258;-8.814;2022-12-11T09:08:46;101368.31;;;-2.54;100.00
64340;BME280;63709;53.258;-8.814;2022-12-11T09:11:14;101357.81;;;-2.50;100.00
64340;BME280;63709;53.258;-8.814;2022-12-11T09:13:41;101352.66;;;-2.54;100.00
64340;BME280;63709;53.258;-8.814;2022-12-11T09:16:12;101372.59;;;-2.49;100.00
64340;BME280;63709;53.258;-8.814;2022-12-11T09:18:39;101375.09;;;-2.38;100.00
64340;BME280;63709;53.258;-8.814;2022-12-11T09:21:11;101355.03;;;-2.37;100.00
64340;BME280;63709;53.258;-8.814;2022-12-11T09:23:40;101362.69;;;-2.22;100.00
64340;BME280;63709;53.258;-8.814;2022-12-11T09:26:08;101354.88;;;-2.25;100.00
64340;BME280;63709;53.258;-8.814;2022-12-11T09:28:37;101364.34;;;-2.16;100.00
64340;BME280;63709;53.258;-8.814;2022-12-11T09:31:18;101349.63;;;-2.24;100.00
64340;BME280;63709;53.258;-8.814;2022-12-11T09:33:46;101346.88;;;-2.13;100.00
64340;BME280;63709;53.258;-8.814;2022-12-11T09:36:12;101351.97;;;-2.05;100.00
64340;BME280;63709;53.258;-8.814;2022-12-11T09:38:38;101362.38;;;-1.99;100.00
64340;BME280;63709;53.258;-8.814;2022-12-11T09:46:19;101355.47;;;-2.03;100.00
64340;BME280;63709;53.258;-8.814;2022-12-11T09:48:50;101353.63;;;-1.98;100.00
64340;BME280;63709;53.258;-8.814;2022-12-11T09:51:21;101363.13;;;-1.91;100.00
64340;BME280;63709;53.258;-8.814;2022-12-11T09:53:51;101364.75;;;-1.84;100.00
64340;BME280;63709;53.258;-8.814;2022-12-11T10:06:58;101374.72;;;-1.52;100.00
64340;BME280;63709;53.258;-8.814;2022-12-11T10:09:36;101362.50;;;-1.51;100.00
64340;BME280;63709;53.258;-8.814;2022-12-11T10:17:39;101360.22;;;-1.20;100.00
64340;BME280;63709;53.258;-8.814;2022-12-11T10:20:51;101359.25;;;-1.16;100.00
64340;BME280;63709;53.258;-8.814;2022-12-11T10:23:00;101351.44;;;-1.17;100.00
64340;BME280;63709;53.258;-8.814;2022-12-11T10:25:31;101352.13;;;-1.06;100.00
64340;BME280;63709;53.258;-8.814;2022-12-11T10:28:09;101334.06;;;-1.22;100.00
64340;BME280;63709;53.258;-8.814;2022-12-11T10:33:22;101359.03;;;-1.02;100.00
64340;BME280;63709;53.258;-8.814;2022-12-11T10:35:56;101352.84;;;-0.98;100.00
64340;BME280;63709;53.258;-8.814;2022-12-11T10:38:23;101338.63;;;-0.86;100.00
64340;BME280;63709;53.258;-8.814;2022-12-11T10:40:55;101335.91;;;-0.82;100.00
64340;BME280;63709;53.258;-8.814;2022-12-11T10:45:59;101349.44;;;-0.60;100.00
64340;BME280;63709;53.258;-8.814;2022-12-11T10:48:25;101352.16;;;-0.63;100.00
64340;BME280;63709;53.258;-8.814;2022-12-11T10:50:57;101352.13;;;-0.61;100.00
64340;BME280;63709;53.258;-8.814;2022-12-11T10:53:24;101346.81;;;-0.58;100.00
64340;BME280;63709;53.258;-8.814;2022-12-11T10:55:51;101368.09;;;-0.32;100.00
64340;BME280;63709;53.258;-8.814;2022-12-11T10:58:24;101322.00;;;-0.42;100.00
64340;BME280;63709;53.258;-8.814;2022-12-11T11:01:02;101364.00;;;-0.03;100.00
64340;BME280;63709;53.258;-8.814;2022-12-11T11:03:28;101360.94;;;0.15;100.00
64340;BME280;63709;53.258;-8.814;2022-12-11T11:06:12;101347.84;;;0.15;100.00
64340;BME280;63709;53.258;-8.814;2022-12-11T11:08:43;101336.13;;;0.29;100.00
64340;BME280;63709;53.258;-8.814;2022-12-11T11:11:36;101361.72;;;0.56;100.00
64340;BME280;63709;53.258;-8.814;2022-12-11T11:14:12;101354.47;;;0.66;100.00
64340;BME280;63709;53.258;-8.814;2022-12-11T11:16:47;101338.75;;;0.64;100.00
64340;BME280;63709;53.258;-8.814;2022-12-11T11:19:31;101360.34;;;0.76;100.00
64340;BME280;63709;53.258;-8.814;2022-12-11T11:22:01;101344.13;;;0.60;100.00
64340;BME280;63709;53.258;-8.814;2022-12-11T11:24:35;101354.16;;;0.78;100.00
64340;BME280;63709;53.258;-8.814;2022-12-11T11:27:24;101314.97;;;0.69;100.00
64340;BME280;63709;53.258;-8.814;2022-12-11T11:29:54;101342.47;;;0.90;100.00
64340;BME280;63709;53.258;-8.814;2022-12-11T11:32:36;101342.53;;;0.87;100.00
64340;BME280;63709;53.258;-8.814;2022-12-11T11:35:24;101348.66;;;0.87;100.00
64340;BME280;63709;53.258;-8.814;2022-12-11T11:38:00;101346.81;;;0.91;100.00
64340;BME280;63709;53.258;-8.814;2022-12-11T11:40:30;101338.78;;;0.97;100.00
64340;BME280;63709;53.258;-8.814;2022-12-11T11:43:24;101338.59;;;1.03;100.00
64340;BME280;63709;53.258;-8.814;2022-12-11T11:46:22;101338.28;;;1.14;100.00
64340;BME280;63709;53.258;-8.814;2022-12-11T11:54:32;101333.56;;;1.27;100.00
64340;BME280;63709;53.258;-8.814;2022-12-11T11:57:04;101282.16;;;1.16;100.00
64340;BME280;63709;53.258;-8.814;2022-12-11T11:59:41;101303.47;;;1.37;100.00
64340;BME280;63709;53.258;-8.814;2022-12-11T12:02:16;101299.03;;;1.39;100.00
64340;BME280;63709;53.258;-8.814;2022-12-11T12:04:44;101317.94;;;1.52;100.00
64340;BME280;63709;53.258;-8.814;2022-12-11T12:07:41;101318.84;;;1.51;100.00
64340;BME280;63709;53.258;-8.814;2022-12-11T12:13:31;101321.84;;;1.68;100.00
64340;BME280;63709;53.258;-8.814;2022-12-11T12:16:02;101312.53;;;1.86;100.00
64340;BME280;63709;53.258;-8.814;2022-12-11T12:18:51;101316.97;;;1.84;100.00
64340;BME280;63709;53.258;-8.814;2022-12-11T12:21:42;101306.25;;;1.90;100.00
64340;BME280;63709;53.258;-8.814;2022-12-11T12:24:39;101312.59;;;2.11;100.00
64340;BME280;63709;53.258;-8.814;2022-12-11T12:38:26;101290.19;;;2.52;100.00
64340;BME280;63709;53.258;-8.814;2022-12-11T12:41:59;101294.19;;;2.64;100.00
64340;BME280;63709;53.258;-8.814;2022-12-11T12:44:11;101287.50;;;2.79;100.00
64340;BME280;63709;53.258;-8.814;2022-12-11T12:49:39;101272.97;;;2.92;100.00
64340;BME280;63709;53.258;-8.814;2022-12-11T12:52:10;101268.41;;;2.97;100.00
64340;BME280;63709;53.258;-8.814;2022-12-11T12:54:38;101243.94;;;2.94;100.00
64340;BME280;63709;53.258;-8.814;2022-12-11T12:57:06;101262.00;;;3.04;100.00
64340;BME280;63709;53.258;-8.814;2022-12-11T12:59:32;101257.47;;;3.08;100.00
64340;BME280;63709;53.258;-8.814;2022-12-11T13:02:01;101256.44;;;3.12;100.00
64340;BME280;63709;53.258;-8.814;2022-12-11T13:04:38;101261.63;;;3.13;100.00
64340;BME280;63709;53.258;-8.814;2022-12-11T13:07:19;101227.47;;;2.87;100.00
64340;BME280;63709;53.258;-8.814;2022-12-11T13:10:04;101235.16;;;2.93;100.00
64340;BME280;63709;53.258;-8.814;2022-12-11T13:12:39;101230.78;;;2.92;100.00
64340;BME280;63709;53.258;-8.814;2022-12-11T13:15:20;101254.88;;;3.06;100.00
64340;BME280;63709;53.258;-8.814;2022-12-11T13:17:47;101251.44;;;3.04;100.00
64340;BME280;63709;53.258;-8.814;2022-12-11T13:20:18;101265.09;;;3.15;100.00
64340;BME280;63709;53.258;-8.814;2022-12-11T13:23:15;101259.69;;;3.19;100.00
64340;BME280;63709;53.258;-8.814;2022-12-11T13:25:54;101257.78;;;3.22;100.00
64340;BME280;63709;53.258;-8.814;2022-12-11T13:34:14;101261.78;;;3.34;100.00
64340;BME280;63709;53.258;-8.814;2022-12-11T13:36:46;101228.28;;;3.12;100.00
64340;BME280;63709;53.258;-8.814;2022-12-11T13:39:17;101261.63;;;3.37;100.00
64340;BME280;63709;53.258;-8.814;2022-12-11T13:41:51;101247.66;;;3.35;100.00
64340;BME280;63709;53.258;-8.814;2022-12-11T13:44:28;101257.94;;;3.41;100.00
64340;BME280;63709;53.258;-8.814;2022-12-11T13:46:57;101256.94;;;3.45;100.00
64340;BME280;63709;53.258;-8.814;2022-12-11T13:49:36;101247.13;;;3.49;100.00
64340;BME280;63709;53.258;-8.814;2022-12-11T13:52:05;101238.63;;;3.40;100.00
64340;BME280;63709;53.258;-8.814;2022-12-11T13:54:34;101254.59;;;3.37;100.00
64340;BME280;63709;53.258;-8.814;2022-12-11T13:57:18;101248.97;;;3.23;100.00
64340;BME280;63709;53.258;-8.814;2022-12-11T13:59:50;101256.28;;;3.15;100.00
64340;BME280;63709;53.258;-8.814;2022-12-11T14:02:32;101236.06;;;2.92;100.00
64340;BME280;63709;53.258;-8.814;2022-12-11T14:05:05;101257.31;;;2.87;100.00